sensor_id;sensor_type;location;lat;lon;timestamp;P1;durP1;ratioP1;P2;durP2;ratioP2
10162;SDS011;5123;52.556;13.384;2024-03-02T00:01:12;60.87;;;41.03;;
10162;SDS011;5123;52.556;13.384;2024-03-02T00:03:46;62.70;;;40.47;;
10162;SDS011;5123;52.556;13.384;2024-03-02T00:06:19;62.73;;;40.37;;
10162;SDS011;5123;52.556;13.384;2024-03-02T00:08:55;61.33;;;41.07;;
10162;SDS011;5123;52.556;13.384;2024-03-02T00:11:29;60.40;;;41.30;;
10162;SDS011;5123;52.556;13.384;2024-03-02T00:14:02;59.30;;;39.90;;
10162;SDS011;5123;52.556;13.384;2024-03-02T00:16:35;59.87;;;40.47;;
10162;SDS011;5123;52.556;13.384;2024-03-02T00:19:10;62.97;;;42.20;;
10162;SDS011;5123;52.556;13.384;2024-03-02T00:21:43;67.47;;;41.63;;
10162;SDS011;5123;52.556;13.384;2024-03-02T00:24:18;62.77;;;41.57;;
10162;SDS011;5123;52.556;13.384;2024-03-02T00:26:53;61.43;;;41.00;;
10162;SDS011;5123;52.556;13.384;2024-03-02T00:29:25;66.97;;;41.07;;
10162;SDS011;5123;52.556;13.384;2024-03-02T00:32:00;65.37;;;40.83;;
10162;SDS011;5123;52.556;13.384;2024-03-02T00:34:34;64.57;;;42.97;;
10162;SDS011;5123;52.556;13.384;2024-03-02T00:37:07;60.17;;;40.73;;
10162;SDS011;5123;52.556;13.384;2024-03-02T00:39:42;63.20;;;41.67;;
10162;SDS011;5123;52.556;13.384;2024-03-02T00:42:14;62.83;;;41.77;;
10162;SDS011;5123;52.556;13.384;2024-03-02T00:44:47;62.00;;;42.37;;
10162;SDS011;5123;52.556;13.384;2024-03-02T00:47:20;61.67;;;41.07;;
10162;SDS011;5123;52.556;13.384;2024-03-02T00:49:56;65.00;;;40.90;;
10162;SDS011;5123;52.556;13.384;2024-03-02T00:52:29;64.40;;;43.00;;
10162;SDS011;5123;52.556;13.384;2024-03-02T00:55:04;62.43;;;42.63;;
10162;SDS011;5123;52.556;13.384;2024-03-02T00:57:37;59.03;;;41.37;;
10162;SDS011;5123;52.556;13.384;2024-03-02T01:00:10;56.87;;;39.40;;
10162;SDS011;5123;52.556;13.384;2024-03-02T01:02:46;61.83;;;42.83;;
10162;SDS011;5123;52.556;13.384;2024-03-02T01:05:20;63.57;;;43.20;;
10162;SDS011;5123;52.556;13.384;2024-03-02T01:07:53;60.87;;;40.77;;
10162;SDS011;5123;52.556;13.384;2024-03-02T01:10:26;62.33;;;41.40;;
10162;SDS011;5123;52.556;13.384;2024-03-02T01:12:58;64.20;;;43.13;;
10162;SDS011;5123;52.556;13.384;2024-03-02T01:15:34;59.97;;;41.03;;
10162;SDS011;5123;52.556;13.384;2024-03-02T01:18:07;64.47;;;43.93;;
10162;SDS011;5123;52.556;13.384;2024-03-02T01:20:41;59.80;;;41.90;;
10162;SDS011;5123;52.556;13.384;2024-03-02T01:23:14;64.80;;;41.33;;
10162;SDS011;5123;52.556;13.384;2024-03-02T01:25:46;59.87;;;39.90;;
10162;SDS011;5123;52.556;13.384;2024-03-02T01:28:19;62.63;;;42.77;;
10162;SDS011;5123;52.556;13.384;2024-03-02T01:30:54;59.00;;;41.17;;
10162;SDS011;5123;52.556;13.384;2024-03-02T01:33:27;64.67;;;43.57;;
10162;SDS011;5123;52.556;13.384;2024-03-02T01:36:01;60.10;;;42.17;;
10162;SDS011;5123;52.556;13.384;2024-03-02T01:38:34;57.27;;;40.80;;
10162;SDS011;5123;52.556;13.384;2024-03-02T01:41:07;62.97;;;43.10;;
10162;SDS011;5123;52.556;13.384;2024-03-02T01:43:39;60.03;;;41.50;;
10162;SDS011;5123;52.556;13.384;2024-03-02T01:46:12;60.33;;;41.47;;
10162;SDS011;5123;52.556;13.384;2024-03-02T01:48:45;64.07;;;42.77;;
10162;SDS011;5123;52.556;13.384;2024-03-02T01:51:21;58.33;;;40.07;;
10162;SDS011;5123;52.556;13.384;2024-03-02T01:53:54;65.73;;;43.10;;
10162;SDS011;5123;52.556;13.384;2024-03-02T01:56:26;63.00;;;41.87;;
10162;SDS011;5123;52.556;13.384;2024-03-02T01:58:59;70.67;;;44.00;;
10162;SDS011;5123;52.556;13.384;2024-03-02T02:01:35;61.10;;;41.43;;
10162;SDS011;5123;52.556;13.384;2024-03-02T02:04:07;64.97;;;42.97;;
10162;SDS011;5123;52.556;13.384;2024-03-02T02:06:41;64.07;;;42.40;;
10162;SDS011;5123;52.556;13.384;2024-03-02T02:09:16;63.30;;;43.53;;
10162;SDS011;5123;52.556;13.384;2024-03-02T02:11:50;63.70;;;42.00;;
10162;SDS011;5123;52.556;13.384;2024-03-02T02:14:22;66.47;;;43.77;;
10162;SDS011;5123;52.556;13.384;2024-03-02T02:16:55;67.57;;;41.57;;
10162;SDS011;5123;52.556;13.384;2024-03-02T02:19:28;62.47;;;43.20;;
10162;SDS011;5123;52.556;13.384;2024-03-02T02:22:02;62.67;;;42.70;;
10162;SDS011;5123;52.556;13.384;2024-03-02T02:24:35;59.93;;;40.97;;
10162;SDS011;5123;52.556;13.384;2024-03-02T02:27:08;63.50;;;42.07;;
10162;SDS011;5123;52.556;13.384;2024-03-02T02:29:41;64.20;;;43.47;;
10162;SDS011;5123;52.556;13.384;2024-03-02T02:32:15;63.07;;;44.00;;
10162;SDS011;5123;52.556;13.384;2024-03-02T02:34:51;65.47;;;43.10;;
10162;SDS011;5123;52.556;13.384;2024-03-02T02:37:25;66.07;;;43.83;;
10162;SDS011;5123;52.556;13.384;2024-03-02T02:39:58;65.93;;;42.37;;
10162;SDS011;5123;52.556;13.384;2024-03-02T02:42:33;70.00;;;43.50;;
10162;SDS011;5123;52.556;13.384;2024-03-02T02:45:06;64.07;;;43.03;;
10162;SDS011;5123;52.556;13.384;2024-03-02T02:47:39;64.83;;;43.57;;
10162;SDS011;5123;52.556;13.384;2024-03-02T02:50:12;64.80;;;42.80;;
10162;SDS011;5123;52.556;13.384;2024-03-02T02:52:46;65.80;;;44.93;;
10162;SDS011;5123;52.556;13.384;2024-03-02T02:55:18;64.10;;;42.90;;
10162;SDS011;5123;52.556;13.384;2024-03-02T02:57:51;63.10;;;43.30;;
10162;SDS011;5123;52.556;13.384;2024-03-02T03:00:24;71.40;;;43.27;;
10162;SDS011;5123;52.556;13.384;2024-03-02T03:02:57;66.77;;;43.53;;
10162;SDS011;5123;52.556;13.384;2024-03-02T03:05:30;65.50;;;44.60;;
10162;SDS011;5123;52.556;13.384;2024-03-02T03:08:04;70.03;;;44.87;;
10162;SDS011;5123;52.556;13.384;2024-03-02T03:10:36;70.43;;;46.83;;
10162;SDS011;5123;52.556;13.384;2024-03-02T03:13:10;68.60;;;45.10;;
10162;SDS011;5123;52.556;13.384;2024-03-02T03:15:43;63.33;;;44.23;;
10162;SDS011;5123;52.556;13.384;2024-03-02T03:18:16;69.93;;;44.27;;
10162;SDS011;5123;52.556;13.384;2024-03-02T03:20:49;63.57;;;42.33;;
10162;SDS011;5123;52.556;13.384;2024-03-02T03:23:23;61.00;;;42.37;;
10162;SDS011;5123;52.556;13.384;2024-03-02T03:25:57;61.67;;;43.93;;
10162;SDS011;5123;52.556;13.384;2024-03-02T03:28:29;63.83;;;43.60;;
10162;SDS011;5123;52.556;13.384;2024-03-02T03:31:02;66.00;;;43.43;;
10162;SDS011;5123;52.556;13.384;2024-03-02T03:33:36;65.23;;;42.40;;
10162;SDS011;5123;52.556;13.384;2024-03-02T03:36:08;62.40;;;41.77;;
10162;SDS011;5123;52.556;13.384;2024-03-02T03:38:43;60.67;;;41.20;;
10162;SDS011;5123;52.556;13.384;2024-03-02T03:41:15;59.63;;;42.17;;
10162;SDS011;5123;52.556;13.384;2024-03-02T03:43:48;61.07;;;41.67;;
10162;SDS011;5123;52.556;13.384;2024-03-02T03:46:20;62.00;;;41.33;;
10162;SDS011;5123;52.556;13.384;2024-03-02T03:48:53;57.03;;;40.70;;
10162;SDS011;5123;52.556;13.384;2024-03-02T03:51:27;66.90;;;43.07;;
10162;SDS011;5123;52.556;13.384;2024-03-02T03:54:01;60.50;;;41.47;;
10162;SDS011;5123;52.556;13.384;2024-03-02T03:56:34;54.23;;;38.93;;
10162;SDS011;5123;52.556;13.384;2024-03-02T03:59:06;61.57;;;42.07;;
10162;SDS011;5123;52.556;13.384;2024-03-02T04:01:39;60.97;;;41.90;;
10162;SDS011;5123;52.556;13.384;2024-03-02T04:04:13;64.93;;;42.67;;
10162;SDS011;5123;52.556;13.384;2024-03-02T04:06:45;59.27;;;41.57;;
10162;SDS011;5123;52.556;13.384;2024-03-02T04:09:19;60.87;;;43.40;;
10162;SDS011;5123;52.556;13.384;2024-03-02T04:11:52;64.53;;;40.60;;
10162;SDS011;5123;52.556;13.384;2024-03-02T04:14:25;56.37;;;40.70;;
10162;SDS011;5123;52.556;13.384;2024-03-02T04:16:58;57.47;;;39.93;;
10162;SDS011;5123;52.556;13.384;2024-03-02T04:19:30;59.03;;;39.43;;
10162;SDS011;5123;52.556;13.384;2024-03-02T04:22:03;53.97;;;38.83;;
10162;SDS011;5123;52.556;13.384;2024-03-02T04:24:50;54.13;;;38.53;;
10162;SDS011;5123;52.556;13.384;2024-03-02T04:27:22;55.93;;;38.07;;
10162;SDS011;5123;52.556;13.384;2024-03-02T04:29:55;53.87;;;38.00;;
10162;SDS011;5123;52.556;13.384;2024-03-02T04:32:28;54.57;;;38.03;;
10162;SDS011;5123;52.556;13.384;2024-03-02T04:35:00;53.33;;;37.43;;
10162;SDS011;5123;52.556;13.384;2024-03-02T04:37:34;54.20;;;37.03;;
10162;SDS011;5123;52.556;13.384;2024-03-02T04:40:08;53.57;;;36.87;;
10162;SDS011;5123;52.556;13.384;2024-03-02T04:42:41;55.77;;;36.03;;
10162;SDS011;5123;52.556;13.384;2024-03-02T04:45:14;51.33;;;36.33;;
10162;SDS011;5123;52.556;13.384;2024-03-02T04:47:47;54.67;;;37.27;;
10162;SDS011;5123;52.556;13.384;2024-03-02T04:50:20;50.13;;;35.13;;
10162;SDS011;5123;52.556;13.384;2024-03-02T04:52:53;50.83;;;36.00;;
10162;SDS011;5123;52.556;13.384;2024-03-02T04:55:27;51.77;;;36.17;;
10162;SDS011;5123;52.556;13.384;2024-03-02T04:58:27;54.07;;;35.53;;
10162;SDS011;5123;52.556;13.384;2024-03-02T05:01:00;49.63;;;35.73;;
10162;SDS011;5123;52.556;13.384;2024-03-02T05:03:32;51.90;;;37.53;;
10162;SDS011;5123;52.556;13.384;2024-03-02T05:06:06;49.23;;;35.83;;
10162;SDS011;5123;52.556;13.384;2024-03-02T05:08:40;51.73;;;35.37;;
10162;SDS011;5123;52.556;13.384;2024-03-02T05:11:14;55.57;;;36.80;;
10162;SDS011;5123;52.556;13.384;2024-03-02T05:14:20;53.30;;;34.90;;
10162;SDS011;5123;52.556;13.384;2024-03-02T05:16:55;50.27;;;35.77;;
10162;SDS011;5123;52.556;13.384;2024-03-02T05:19:27;52.13;;;37.67;;
10162;SDS011;5123;52.556;13.384;2024-03-02T05:22:00;46.53;;;34.80;;
10162;SDS011;5123;52.556;13.384;2024-03-02T05:24:32;50.67;;;35.57;;
10162;SDS011;5123;52.556;13.384;2024-03-02T05:27:07;52.80;;;35.77;;
10162;SDS011;5123;52.556;13.384;2024-03-02T05:29:39;50.77;;;35.63;;
10162;SDS011;5123;52.556;13.384;2024-03-02T05:32:12;51.40;;;34.60;;
10162;SDS011;5123;52.556;13.384;2024-03-02T05:34:45;47.93;;;34.90;;
10162;SDS011;5123;52.556;13.384;2024-03-02T05:37:18;49.00;;;34.67;;
10162;SDS011;5123;52.556;13.384;2024-03-02T05:39:51;52.47;;;34.83;;
10162;SDS011;5123;52.556;13.384;2024-03-02T05:42:25;48.03;;;35.07;;
10162;SDS011;5123;52.556;13.384;2024-03-02T05:44:58;48.40;;;35.00;;
10162;SDS011;5123;52.556;13.384;2024-03-02T05:47:31;50.27;;;34.87;;
10162;SDS011;5123;52.556;13.384;2024-03-02T05:50:04;53.87;;;36.10;;
10162;SDS011;5123;52.556;13.384;2024-03-02T05:52:38;51.13;;;36.60;;
10162;SDS011;5123;52.556;13.384;2024-03-02T05:55:11;53.37;;;36.70;;
10162;SDS011;5123;52.556;13.384;2024-03-02T05:57:45;49.07;;;36.27;;
10162;SDS011;5123;52.556;13.384;2024-03-02T06:00:30;46.03;;;33.73;;
10162;SDS011;5123;52.556;13.384;2024-03-02T06:03:03;49.57;;;36.43;;
10162;SDS011;5123;52.556;13.384;2024-03-02T06:05:37;53.40;;;37.27;;
10162;SDS011;5123;52.556;13.384;2024-03-02T06:08:10;52.83;;;38.20;;
10162;SDS011;5123;52.556;13.384;2024-03-02T06:10:43;57.90;;;38.70;;
10162;SDS011;5123;52.556;13.384;2024-03-02T06:13:17;61.13;;;39.33;;
10162;SDS011;5123;52.556;13.384;2024-03-02T06:15:50;58.57;;;38.57;;
10162;SDS011;5123;52.556;13.384;2024-03-02T06:18:25;65.20;;;40.50;;
10162;SDS011;5123;52.556;13.384;2024-03-02T06:20:58;57.67;;;38.37;;
10162;SDS011;5123;52.556;13.384;2024-03-02T06:23:32;60.23;;;39.03;;
10162;SDS011;5123;52.556;13.384;2024-03-02T06:26:04;60.33;;;40.80;;
10162;SDS011;5123;52.556;13.384;2024-03-02T06:28:38;59.83;;;39.20;;
10162;SDS011;5123;52.556;13.384;2024-03-02T06:31:11;58.37;;;40.70;;
10162;SDS011;5123;52.556;13.384;2024-03-02T06:33:43;62.93;;;41.10;;
10162;SDS011;5123;52.556;13.384;2024-03-02T06:36:16;60.33;;;40.13;;
10162;SDS011;5123;52.556;13.384;2024-03-02T06:38:49;58.27;;;39.00;;
10162;SDS011;5123;52.556;13.384;2024-03-02T06:41:22;61.23;;;39.30;;
10162;SDS011;5123;52.556;13.384;2024-03-02T06:43:56;57.30;;;37.77;;
10162;SDS011;5123;52.556;13.384;2024-03-02T06:46:31;55.80;;;39.10;;
10162;SDS011;5123;52.556;13.384;2024-03-02T06:49:05;63.53;;;39.43;;
10162;SDS011;5123;52.556;13.384;2024-03-02T06:51:38;60.00;;;40.80;;
10162;SDS011;5123;52.556;13.384;2024-03-02T06:54:13;62.13;;;41.80;;
10162;SDS011;5123;52.556;13.384;2024-03-02T06:56:46;61.23;;;41.27;;
10162;SDS011;5123;52.556;13.384;2024-03-02T06:59:23;61.40;;;41.40;;
10162;SDS011;5123;52.556;13.384;2024-03-02T07:01:56;60.90;;;39.53;;
10162;SDS011;5123;52.556;13.384;2024-03-02T07:04:29;64.33;;;40.70;;
10162;SDS011;5123;52.556;13.384;2024-03-02T07:07:01;64.27;;;39.80;;
10162;SDS011;5123;52.556;13.384;2024-03-02T07:09:34;58.80;;;38.83;;
10162;SDS011;5123;52.556;13.384;2024-03-02T07:12:07;61.60;;;41.13;;
10162;SDS011;5123;52.556;13.384;2024-03-02T07:14:41;62.43;;;38.33;;
10162;SDS011;5123;52.556;13.384;2024-03-02T07:17:39;56.83;;;38.83;;
10162;SDS011;5123;52.556;13.384;2024-03-02T07:20:14;59.23;;;39.23;;
10162;SDS011;5123;52.556;13.384;2024-03-02T07:22:47;65.20;;;42.07;;
10162;SDS011;5123;52.556;13.384;2024-03-02T07:25:19;60.90;;;40.70;;
10162;SDS011;5123;52.556;13.384;2024-03-02T07:27:55;64.20;;;40.83;;
10162;SDS011;5123;52.556;13.384;2024-03-02T07:30:30;60.87;;;39.53;;
10162;SDS011;5123;52.556;13.384;2024-03-02T07:33:04;58.77;;;38.83;;
10162;SDS011;5123;52.556;13.384;2024-03-02T07:35:37;62.13;;;40.90;;
10162;SDS011;5123;52.556;13.384;2024-03-02T07:38:10;56.67;;;38.77;;
10162;SDS011;5123;52.556;13.384;2024-03-02T07:40:44;63.73;;;40.47;;
10162;SDS011;5123;52.556;13.384;2024-03-02T07:43:16;60.23;;;39.67;;
10162;SDS011;5123;52.556;13.384;2024-03-02T07:45:50;56.00;;;36.87;;
10162;SDS011;5123;52.556;13.384;2024-03-02T07:48:25;63.57;;;39.97;;
10162;SDS011;5123;52.556;13.384;2024-03-02T07:50:59;59.63;;;40.13;;
10162;SDS011;5123;52.556;13.384;2024-03-02T07:53:33;59.77;;;40.93;;
10162;SDS011;5123;52.556;13.384;2024-03-02T07:56:06;56.83;;;37.13;;
10162;SDS011;5123;52.556;13.384;2024-03-02T07:58:38;58.23;;;37.43;;
10162;SDS011;5123;52.556;13.384;2024-03-02T08:01:15;58.33;;;37.17;;
10162;SDS011;5123;52.556;13.384;2024-03-02T08:03:48;54.53;;;36.60;;
10162;SDS011;5123;52.556;13.384;2024-03-02T08:06:22;56.17;;;37.97;;
10162;SDS011;5123;52.556;13.384;2024-03-02T08:08:55;56.03;;;37.80;;
10162;SDS011;5123;52.556;13.384;2024-03-02T08:11:27;55.53;;;36.60;;
10162;SDS011;5123;52.556;13.384;2024-03-02T08:14:01;56.77;;;37.87;;
10162;SDS011;5123;52.556;13.384;2024-03-02T08:16:36;55.93;;;38.63;;
10162;SDS011;5123;52.556;13.384;2024-03-02T08:19:08;61.67;;;37.83;;
10162;SDS011;5123;52.556;13.384;2024-03-02T08:21:42;55.30;;;38.27;;
10162;SDS011;5123;52.556;13.384;2024-03-02T08:24:15;53.50;;;37.67;;
10162;SDS011;5123;52.556;13.384;2024-03-02T08:26:48;63.97;;;38.50;;
10162;SDS011;5123;52.556;13.384;2024-03-02T08:29:20;57.30;;;38.60;;
10162;SDS011;5123;52.556;13.384;2024-03-02T08:31:54;56.90;;;38.13;;
10162;SDS011;5123;52.556;13.384;2024-03-02T08:34:33;55.37;;;38.37;;
10162;SDS011;5123;52.556;13.384;2024-03-02T08:37:06;59.30;;;38.30;;
10162;SDS011;5123;52.556;13.384;2024-03-02T08:39:39;60.10;;;39.87;;
10162;SDS011;5123;52.556;13.384;2024-03-02T08:42:13;54.43;;;38.00;;
10162;SDS011;5123;52.556;13.384;2024-03-02T08:44:45;54.67;;;37.90;;
10162;SDS011;5123;52.556;13.384;2024-03-02T08:47:22;54.33;;;36.53;;
10162;SDS011;5123;52.556;13.384;2024-03-02T08:49:54;58.20;;;37.63;;
10162;SDS011;5123;52.556;13.384;2024-03-02T08:52:31;60.37;;;37.13;;
10162;SDS011;5123;52.556;13.384;2024-03-02T08:55:04;54.10;;;36.53;;
10162;SDS011;5123;52.556;13.384;2024-03-02T08:57:38;54.20;;;38.30;;
10162;SDS011;5123;52.556;13.384;2024-03-02T09:00:11;58.17;;;37.97;;
10162;SDS011;5123;52.556;13.384;2024-03-02T09:02:49;52.30;;;36.33;;
10162;SDS011;5123;52.556;13.384;2024-03-02T09:05:22;57.20;;;37.77;;
10162;SDS011;5123;52.556;13.384;2024-03-02T09:07:55;55.70;;;37.07;;
10162;SDS011;5123;52.556;13.384;2024-03-02T09:10:27;53.03;;;36.20;;
10162;SDS011;5123;52.556;13.384;2024-03-02T09:13:02;52.30;;;37.33;;
10162;SDS011;5123;52.556;13.384;2024-03-02T09:15:34;49.90;;;35.50;;
10162;SDS011;5123;52.556;13.384;2024-03-02T09:18:10;47.87;;;32.67;;
10162;SDS011;5123;52.556;13.384;2024-03-02T09:20:44;53.20;;;33.83;;
10162;SDS011;5123;52.556;13.384;2024-03-02T09:23:17;50.37;;;34.73;;
10162;SDS011;5123;52.556;13.384;2024-03-02T09:25:49;45.07;;;33.67;;
10162;SDS011;5123;52.556;13.384;2024-03-02T09:28:22;49.67;;;34.60;;
10162;SDS011;5123;52.556;13.384;2024-03-02T09:30:55;49.40;;;35.67;;
10162;SDS011;5123;52.556;13.384;2024-03-02T09:33:32;50.80;;;35.73;;
10162;SDS011;5123;52.556;13.384;2024-03-02T09:36:05;53.87;;;36.10;;
10162;SDS011;5123;52.556;13.384;2024-03-02T09:38:38;46.73;;;34.47;;
10162;SDS011;5123;52.556;13.384;2024-03-02T09:41:10;49.87;;;34.50;;
10162;SDS011;5123;52.556;13.384;2024-03-02T09:43:44;54.30;;;35.00;;
10162;SDS011;5123;52.556;13.384;2024-03-02T09:46:16;47.60;;;33.90;;
10162;SDS011;5123;52.556;13.384;2024-03-02T09:48:51;45.10;;;32.77;;
10162;SDS011;5123;52.556;13.384;2024-03-02T09:51:24;46.80;;;34.23;;
10162;SDS011;5123;52.556;13.384;2024-03-02T09:53:57;45.17;;;33.57;;
10162;SDS011;5123;52.556;13.384;2024-03-02T09:56:47;45.37;;;32.17;;
10162;SDS011;5123;52.556;13.384;2024-03-02T09:59:20;45.60;;;31.97;;
10162;SDS011;5123;52.556;13.384;2024-03-02T10:01:56;46.50;;;32.63;;
10162;SDS011;5123;52.556;13.384;2024-03-02T10:04:32;45.60;;;32.53;;
10162;SDS011;5123;52.556;13.384;2024-03-02T10:07:11;45.70;;;31.27;;
10162;SDS011;5123;52.556;13.384;2024-03-02T10:09:45;42.10;;;30.27;;
10162;SDS011;5123;52.556;13.384;2024-03-02T10:12:21;43.43;;;31.57;;
10162;SDS011;5123;52.556;13.384;2024-03-02T10:15:05;41.97;;;30.73;;
10162;SDS011;5123;52.556;13.384;2024-03-02T10:17:39;41.87;;;30.80;;
10162;SDS011;5123;52.556;13.384;2024-03-02T10:20:22;45.57;;;30.97;;
10162;SDS011;5123;52.556;13.384;2024-03-02T10:22:55;40.10;;;29.20;;
10162;SDS011;5123;52.556;13.384;2024-03-02T10:25:30;37.17;;;27.90;;
10162;SDS011;5123;52.556;13.384;2024-03-02T10:28:21;38.73;;;28.40;;
10162;SDS011;5123;52.556;13.384;2024-03-02T10:30:54;35.87;;;26.73;;
10162;SDS011;5123;52.556;13.384;2024-03-02T10:33:27;35.83;;;28.27;;
10162;SDS011;5123;52.556;13.384;2024-03-02T10:36:02;35.93;;;26.90;;
10162;SDS011;5123;52.556;13.384;2024-03-02T10:38:35;35.93;;;26.63;;
10162;SDS011;5123;52.556;13.384;2024-03-02T10:41:08;38.67;;;27.63;;
10162;SDS011;5123;52.556;13.384;2024-03-02T10:43:41;36.10;;;25.57;;
10162;SDS011;5123;52.556;13.384;2024-03-02T10:46:14;37.20;;;27.13;;
10162;SDS011;5123;52.556;13.384;2024-03-02T10:48:48;34.87;;;26.90;;
10162;SDS011;5123;52.556;13.384;2024-03-02T10:51:23;37.00;;;26.37;;
10162;SDS011;5123;52.556;13.384;2024-03-02T10:53:56;35.87;;;26.33;;
10162;SDS011;5123;52.556;13.384;2024-03-02T10:56:30;34.83;;;25.37;;
10162;SDS011;5123;52.556;13.384;2024-03-02T10:59:03;36.03;;;24.73;;
10162;SDS011;5123;52.556;13.384;2024-03-02T11:01:39;37.40;;;25.03;;
10162;SDS011;5123;52.556;13.384;2024-03-02T11:04:12;32.67;;;24.13;;
10162;SDS011;5123;52.556;13.384;2024-03-02T11:06:49;35.17;;;23.00;;
10162;SDS011;5123;52.556;13.384;2024-03-02T11:09:23;31.73;;;23.37;;
10162;SDS011;5123;52.556;13.384;2024-03-02T11:12:00;29.20;;;22.10;;
10162;SDS011;5123;52.556;13.384;2024-03-02T11:14:34;30.00;;;21.77;;
10162;SDS011;5123;52.556;13.384;2024-03-02T11:17:08;31.27;;;21.93;;
10162;SDS011;5123;52.556;13.384;2024-03-02T11:19:41;32.30;;;22.60;;
10162;SDS011;5123;52.556;13.384;2024-03-02T11:22:16;27.63;;;21.90;;
10162;SDS011;5123;52.556;13.384;2024-03-02T11:24:50;29.60;;;21.90;;
10162;SDS011;5123;52.556;13.384;2024-03-02T11:33:09;28.20;;;21.60;;
10162;SDS011;5123;52.556;13.384;2024-03-02T11:35:44;27.50;;;21.50;;
10162;SDS011;5123;52.556;13.384;2024-03-02T11:38:19;29.93;;;22.33;;
10162;SDS011;5123;52.556;13.384;2024-03-02T11:40:52;27.57;;;20.47;;
10162;SDS011;5123;52.556;13.384;2024-03-02T11:43:25;25.80;;;19.77;;
10162;SDS011;5123;52.556;13.384;2024-03-02T11:45:59;29.63;;;20.93;;
10162;SDS011;5123;52.556;13.384;2024-03-02T11:48:33;28.60;;;19.60;;
10162;SDS011;5123;52.556;13.384;2024-03-02T11:51:07;27.87;;;20.90;;
10162;SDS011;5123;52.556;13.384;2024-03-02T11:53:41;26.73;;;20.33;;
10162;SDS011;5123;52.556;13.384;2024-03-02T11:56:14;24.93;;;19.87;;
10162;SDS011;5123;52.556;13.384;2024-03-02T11:58:48;28.17;;;21.23;;
10162;SDS011;5123;52.556;13.384;2024-03-02T12:01:24;25.90;;;18.87;;
10162;SDS011;5123;52.556;13.384;2024-03-02T12:03:57;29.33;;;21.57;;
10162;SDS011;5123;52.556;13.384;2024-03-02T12:06:30;31.40;;;21.00;;
10162;SDS011;5123;52.556;13.384;2024-03-02T12:09:06;27.43;;;20.70;;
10162;SDS011;5123;52.556;13.384;2024-03-02T12:11:42;25.03;;;18.73;;
10162;SDS011;5123;52.556;13.384;2024-03-02T12:14:15;24.00;;;19.70;;
10162;SDS011;5123;52.556;13.384;2024-03-02T12:16:48;26.63;;;20.33;;
10162;SDS011;5123;52.556;13.384;2024-03-02T12:19:21;27.10;;;19.27;;
10162;SDS011;5123;52.556;13.384;2024-03-02T12:21:53;27.77;;;19.50;;
10162;SDS011;5123;52.556;13.384;2024-03-02T12:24:28;26.23;;;18.97;;
10162;SDS011;5123;52.556;13.384;2024-03-02T12:27:01;29.43;;;18.83;;
10162;SDS011;5123;52.556;13.384;2024-03-02T12:29:36;26.63;;;19.20;;
10162;SDS011;5123;52.556;13.384;2024-03-02T12:32:09;29.77;;;20.97;;
10162;SDS011;5123;52.556;13.384;2024-03-02T12:34:46;26.30;;;19.17;;
10162;SDS011;5123;52.556;13.384;2024-03-02T12:37:21;23.60;;;18.80;;
10162;SDS011;5123;52.556;13.384;2024-03-02T12:39:55;23.13;;;18.50;;
10162;SDS011;5123;52.556;13.384;2024-03-02T12:42:27;22.73;;;17.97;;
10162;SDS011;5123;52.556;13.384;2024-03-02T12:45:00;23.00;;;17.87;;
10162;SDS011;5123;52.556;13.384;2024-03-02T12:47:33;25.33;;;19.07;;
10162;SDS011;5123;52.556;13.384;2024-03-02T12:50:06;26.03;;;18.90;;
10162;SDS011;5123;52.556;13.384;2024-03-02T12:52:39;81.33;;;21.77;;
10162;SDS011;5123;52.556;13.384;2024-03-02T12:55:13;25.27;;;16.50;;
10162;SDS011;5123;52.556;13.384;2024-03-02T12:57:50;24.30;;;17.27;;
10162;SDS011;5123;52.556;13.384;2024-03-02T13:00:26;22.85;;;17.20;;
10162;SDS011;5123;52.556;13.384;2024-03-02T13:02:59;20.83;;;17.45;;
10162;SDS011;5123;52.556;13.384;2024-03-02T13:05:34;22.07;;;16.90;;
10162;SDS011;5123;52.556;13.384;2024-03-02T13:08:07;20.47;;;16.27;;
10162;SDS011;5123;52.556;13.384;2024-03-02T13:10:42;21.70;;;16.67;;
10162;SDS011;5123;52.556;13.384;2024-03-02T13:13:15;21.17;;;16.17;;
10162;SDS011;5123;52.556;13.384;2024-03-02T13:15:49;22.23;;;16.70;;
10162;SDS011;5123;52.556;13.384;2024-03-02T13:18:24;22.67;;;16.30;;
10162;SDS011;5123;52.556;13.384;2024-03-02T13:20:58;24.00;;;17.70;;
10162;SDS011;5123;52.556;13.384;2024-03-02T13:23:31;19.93;;;15.90;;
10162;SDS011;5123;52.556;13.384;2024-03-02T13:26:06;20.70;;;16.93;;
10162;SDS011;5123;52.556;13.384;2024-03-02T13:28:42;20.83;;;16.10;;
10162;SDS011;5123;52.556;13.384;2024-03-02T13:31:15;22.03;;;17.00;;
10162;SDS011;5123;52.556;13.384;2024-03-02T13:33:48;19.27;;;16.23;;
10162;SDS011;5123;52.556;13.384;2024-03-02T13:36:21;20.87;;;16.47;;
10162;SDS011;5123;52.556;13.384;2024-03-02T13:38:53;22.43;;;16.63;;
10162;SDS011;5123;52.556;13.384;2024-03-02T13:41:28;22.23;;;17.73;;
10162;SDS011;5123;52.556;13.384;2024-03-02T13:44:01;21.20;;;16.30;;
10162;SDS011;5123;52.556;13.384;2024-03-02T13:46:37;18.97;;;16.50;;
10162;SDS011;5123;52.556;13.384;2024-03-02T13:49:09;22.00;;;16.67;;
10162;SDS011;5123;52.556;13.384;2024-03-02T13:51:43;19.43;;;15.30;;
10162;SDS011;5123;52.556;13.384;2024-03-02T13:54:17;22.07;;;16.57;;
10162;SDS011;5123;52.556;13.384;2024-03-02T13:56:54;21.70;;;16.47;;
10162;SDS011;5123;52.556;13.384;2024-03-02T13:59:27;25.43;;;16.33;;
10162;SDS011;5123;52.556;13.384;2024-03-02T14:02:00;21.47;;;16.83;;
10162;SDS011;5123;52.556;13.384;2024-03-02T14:04:33;19.03;;;16.20;;
10162;SDS011;5123;52.556;13.384;2024-03-02T14:07:05;20.70;;;17.10;;
10162;SDS011;5123;52.556;13.384;2024-03-02T14:09:40;20.87;;;15.73;;
10162;SDS011;5123;52.556;13.384;2024-03-02T14:12:16;20.47;;;16.23;;
10162;SDS011;5123;52.556;13.384;2024-03-02T14:14:49;20.77;;;16.67;;
10162;SDS011;5123;52.556;13.384;2024-03-02T14:17:29;23.20;;;16.57;;
10162;SDS011;5123;52.556;13.384;2024-03-02T14:20:04;23.77;;;16.40;;
10162;SDS011;5123;52.556;13.384;2024-03-02T14:22:39;19.07;;;15.57;;
10162;SDS011;5123;52.556;13.384;2024-03-02T14:25:13;21.43;;;15.87;;
10162;SDS011;5123;52.556;13.384;2024-03-02T14:27:48;23.27;;;16.63;;
10162;SDS011;5123;52.556;13.384;2024-03-02T14:30:42;18.07;;;14.67;;
10162;SDS011;5123;52.556;13.384;2024-03-02T14:33:14;23.57;;;17.13;;
10162;SDS011;5123;52.556;13.384;2024-03-02T14:35:48;22.50;;;16.80;;
10162;SDS011;5123;52.556;13.384;2024-03-02T14:38:20;20.60;;;14.83;;
10162;SDS011;5123;52.556;13.384;2024-03-02T14:40:53;19.13;;;15.13;;
10162;SDS011;5123;52.556;13.384;2024-03-02T14:43:28;18.57;;;14.20;;
10162;SDS011;5123;52.556;13.384;2024-03-02T14:46:01;15.90;;;12.60;;
10162;SDS011;5123;52.556;13.384;2024-03-02T14:48:34;15.20;;;12.33;;
10162;SDS011;5123;52.556;13.384;2024-03-02T14:51:07;15.80;;;12.47;;
10162;SDS011;5123;52.556;13.384;2024-03-02T14:53:42;16.87;;;12.90;;
10162;SDS011;5123;52.556;13.384;2024-03-02T14:56:15;15.50;;;12.40;;
10162;SDS011;5123;52.556;13.384;2024-03-02T14:58:49;19.30;;;15.13;;
10162;SDS011;5123;52.556;13.384;2024-03-02T15:01:22;17.70;;;13.90;;
10162;SDS011;5123;52.556;13.384;2024-03-02T15:03:57;14.63;;;11.17;;
10162;SDS011;5123;52.556;13.384;2024-03-02T15:06:29;13.80;;;10.73;;